PUA1497 SBMO-SUMU
Flight info
| Callsign | PUA1497 |
|---|---|
| Flight time | 4h 50m |
| Altitude | 38000 |
| Route | OBLAX UZ21 VUNOX UZ38 UMDEX/N0488F400 UZ38 UGUTU UM792 CRR |
| Aircraft | B78X/H-SDE1E2E3FGHIJ2J3J4J5M1RWXY/LB1D1 |
Departure
| Time | 2026-04-26 13:31 |
|---|---|
| Airport | Zumbi dos Palmares International Airport (SBMO) |
Arrival
| Time | 2026-04-26 18:21 |
|---|---|
| Airport | Carrasco General Cesáreo L. Berisso International Airport (SUMU) |
| Time | Latitude | Longitude | Altitude | Speed | Heading |
|---|---|---|---|---|---|
| 2026-04-26 13:11 | -9.51367 | -35.79240 | 392 ft | 0 kts | 189° |
| 2026-04-26 13:23 | -9.51354 | -35.79238 | 392 ft | 2 kts | 189° |
| 2026-04-26 13:23 | -9.51337 | -35.79234 | 392 ft | 2 kts | 161° |
| 2026-04-26 13:23 | -9.51324 | -35.79241 | 392 ft | 0 kts | 102° |
| 2026-04-26 13:24 | -9.51325 | -35.79237 | 392 ft | 4 kts | 102° |
| 2026-04-26 13:24 | -9.51337 | -35.79181 | 391 ft | 11 kts | 102° |
| 2026-04-26 13:24 | -9.51347 | -35.79104 | 391 ft | 11 kts | 95° |
| 2026-04-26 13:25 | -9.51346 | -35.79085 | 391 ft | 0 kts | 86° |
| 2026-04-26 13:26 | -9.51345 | -35.79064 | 390 ft | 11 kts | 86° |
| 2026-04-26 13:26 | -9.51282 | -35.79030 | 390 ft | 15 kts | 335° |
| 2026-04-26 13:26 | -9.51245 | -35.79148 | 391 ft | 26 kts | 282° |
| 2026-04-26 13:27 | -9.51209 | -35.79332 | 393 ft | 26 kts | 280° |
| 2026-04-26 13:27 | -9.51180 | -35.79500 | 394 ft | 23 kts | 280° |
| 2026-04-26 13:27 | -9.51154 | -35.79647 | 395 ft | 20 kts | 280° |
| 2026-04-26 13:27 | -9.51130 | -35.79780 | 396 ft | 19 kts | 280° |
| 2026-04-26 13:28 | -9.51108 | -35.79908 | 397 ft | 18 kts | 280° |
| 2026-04-26 13:28 | -9.51086 | -35.80026 | 399 ft | 15 kts | 280° |
| 2026-04-26 13:28 | -9.51068 | -35.80130 | 399 ft | 15 kts | 280° |
| 2026-04-26 13:28 | -9.51049 | -35.80231 | 398 ft | 14 kts | 280° |
| 2026-04-26 13:29 | -9.51031 | -35.80328 | 400 ft | 14 kts | 280° |
| 2026-04-26 13:29 | -9.50997 | -35.80363 | 400 ft | 8 kts | 349° |
| 2026-04-26 13:29 | -9.50931 | -35.80340 | 402 ft | 8 kts | 20° |
| 2026-04-26 13:29 | -9.50884 | -35.80321 | 396 ft | 7 kts | 39° |
| 2026-04-26 13:30 | -9.50872 | -35.80284 | 400 ft | 4 kts | 97° |
| 2026-04-26 13:30 | -9.50887 | -35.80196 | 401 ft | 47 kts | 100° |
| 2026-04-26 13:30 | -9.51014 | -35.79583 | 397 ft | 129 kts | 100° |
| 2026-04-26 13:30 | -9.51207 | -35.78465 | 547 ft | 180 kts | 101° |
| 2026-04-26 13:31 | -9.51474 | -35.77124 | 1076 ft | 211 kts | 105° |
| 2026-04-26 13:31 | -9.51784 | -35.75617 | 1678 ft | 228 kts | 104° |
| 2026-04-26 13:31 | -9.52144 | -35.74020 | 2442 ft | 238 kts | 114° |
| 2026-04-26 13:31 | -9.53222 | -35.72735 | 3271 ft | 251 kts | 149° |
| 2026-04-26 13:32 | -9.54885 | -35.72203 | 4406 ft | 255 kts | 179° |
| 2026-04-26 13:32 | -9.56613 | -35.72668 | 5552 ft | 266 kts | 209° |
| 2026-04-26 13:32 | -9.57848 | -35.74061 | 6673 ft | 275 kts | 246° |
| 2026-04-26 13:32 | -9.58315 | -35.75975 | 7720 ft | 284 kts | 259° |
| 2026-04-26 13:33 | -9.58550 | -35.77980 | 8799 ft | 288 kts | 262° |
| 2026-04-26 13:33 | -9.58778 | -35.80032 | 9735 ft | 297 kts | 261° |
| 2026-04-26 13:33 | -9.59074 | -35.82096 | 10018 ft | 298 kts | 259° |
| 2026-04-26 13:33 | -9.59390 | -35.84164 | 10009 ft | 294 kts | 259° |
| 2026-04-26 13:34 | -9.59684 | -35.86227 | 10012 ft | 296 kts | 260° |
| 2026-04-26 13:34 | -9.59971 | -35.88291 | 10009 ft | 295 kts | 260° |
| 2026-04-26 13:34 | -9.60256 | -35.90321 | 10007 ft | 295 kts | 260° |
| 2026-04-26 13:34 | -9.60452 | -35.91705 | 10005 ft | 295 kts | 260° |
| 2026-04-26 13:35 | -9.60840 | -35.94439 | 10009 ft | 295 kts | 260° |
| 2026-04-26 13:35 | -9.61131 | -35.96499 | 10005 ft | 296 kts | 260° |
| 2026-04-26 13:35 | -9.61421 | -35.98558 | 10006 ft | 295 kts | 260° |
| 2026-04-26 13:35 | -9.61711 | -36.00616 | 10002 ft | 295 kts | 260° |
| 2026-04-26 13:36 | -9.62001 | -36.02671 | 10003 ft | 294 kts | 260° |
| 2026-04-26 13:36 | -9.62292 | -36.04731 | 10007 ft | 295 kts | 260° |
| 2026-04-26 13:36 | -9.62582 | -36.06787 | 9998 ft | 295 kts | 260° |
| 2026-04-26 13:36 | -9.62869 | -36.08838 | 10004 ft | 295 kts | 260° |
| 2026-04-26 13:37 | -9.63160 | -36.10897 | 9995 ft | 295 kts | 260° |
| 2026-04-26 13:37 | -9.63446 | -36.12924 | 9998 ft | 295 kts | 260° |
| 2026-04-26 13:37 | -9.63739 | -36.15007 | 9996 ft | 295 kts | 260° |
| 2026-04-26 13:37 | -9.64026 | -36.17046 | 9997 ft | 295 kts | 260° |
| 2026-04-26 13:38 | -9.64514 | -36.19043 | 9998 ft | 292 kts | 241° |
| 2026-04-26 13:38 | -9.65459 | -36.20874 | 10006 ft | 293 kts | 242° |
| 2026-04-26 13:38 | -9.66327 | -36.22746 | 10008 ft | 293 kts | 243° |
| 2026-04-26 13:38 | -9.67207 | -36.24609 | 10007 ft | 293 kts | 242° |
| 2026-04-26 13:39 | -9.68110 | -36.26450 | 10010 ft | 292 kts | 242° |
| 2026-04-26 13:39 | -9.69014 | -36.28297 | 10008 ft | 292 kts | 242° |
| 2026-04-26 13:39 | -9.69910 | -36.30146 | 10011 ft | 292 kts | 242° |
| 2026-04-26 13:39 | -9.70805 | -36.31996 | 10009 ft | 293 kts | 242° |
| 2026-04-26 13:40 | -9.71701 | -36.33843 | 10012 ft | 292 kts | 242° |
| 2026-04-26 13:40 | -9.72601 | -36.35696 | 10013 ft | 293 kts | 242° |
| 2026-04-26 13:40 | -9.73487 | -36.37525 | 10016 ft | 293 kts | 242° |
| 2026-04-26 13:40 | -9.74385 | -36.39379 | 10012 ft | 292 kts | 242° |
| 2026-04-26 13:41 | -9.75281 | -36.41226 | 10007 ft | 292 kts | 242° |
| 2026-04-26 13:41 | -9.76179 | -36.43079 | 10010 ft | 292 kts | 242° |
| 2026-04-26 13:41 | -9.77076 | -36.44930 | 10010 ft | 292 kts | 242° |
| 2026-04-26 13:41 | -9.77973 | -36.46779 | 10012 ft | 293 kts | 242° |
| 2026-04-26 13:42 | -9.78868 | -36.48627 | 10010 ft | 292 kts | 242° |
| 2026-04-26 13:42 | -9.79766 | -36.50484 | 10014 ft | 292 kts | 242° |
| 2026-04-26 13:42 | -9.80662 | -36.52333 | 10011 ft | 292 kts | 242° |
| 2026-04-26 13:42 | -9.81558 | -36.54183 | 10010 ft | 292 kts | 242° |
| 2026-04-26 13:43 | -9.82453 | -36.56032 | 10008 ft | 292 kts | 242° |
| 2026-04-26 13:43 | -9.83348 | -36.57880 | 10009 ft | 293 kts | 242° |
| 2026-04-26 13:43 | -9.84243 | -36.59730 | 10003 ft | 291 kts | 242° |
| 2026-04-26 13:43 | -9.85135 | -36.61573 | 10000 ft | 291 kts | 242° |
| 2026-04-26 13:44 | -9.86028 | -36.63420 | 10002 ft | 292 kts | 242° |
| 2026-04-26 13:44 | -9.86923 | -36.65269 | 10001 ft | 293 kts | 242° |
| 2026-04-26 13:44 | -9.87820 | -36.67124 | 10003 ft | 292 kts | 242° |
| 2026-04-26 13:44 | -9.88701 | -36.68946 | 10001 ft | 292 kts | 242° |
| 2026-04-26 13:45 | -9.89596 | -36.70796 | 10001 ft | 292 kts | 242° |
| 2026-04-26 13:45 | -9.90489 | -36.72646 | 10000 ft | 291 kts | 242° |
| 2026-04-26 13:45 | -9.91422 | -36.74463 | 10000 ft | 290 kts | 233° |
| 2026-04-26 13:45 | -9.92859 | -36.75867 | 10009 ft | 288 kts | 215° |
| 2026-04-26 13:46 | -9.94486 | -36.77057 | 10006 ft | 288 kts | 213° |
| 2026-04-26 13:46 | -9.96140 | -36.78205 | 10011 ft | 288 kts | 213° |
| 2026-04-26 13:46 | -9.97782 | -36.79364 | 10002 ft | 287 kts | 214° |
| 2026-04-26 13:46 | -9.99411 | -36.80538 | 10004 ft | 287 kts | 214° |
| 2026-04-26 13:47 | -10.01041 | -36.81709 | 10008 ft | 288 kts | 214° |
| 2026-04-26 13:47 | -10.02679 | -36.82878 | 10007 ft | 288 kts | 214° |
| 2026-04-26 13:47 | -10.04316 | -36.84048 | 10007 ft | 288 kts | 214° |
| 2026-04-26 13:47 | -10.05954 | -36.85221 | 10007 ft | 288 kts | 214° |
| 2026-04-26 13:48 | -10.07596 | -36.86396 | 10008 ft | 288 kts | 214° |
| 2026-04-26 13:48 | -10.09230 | -36.87566 | 10006 ft | 288 kts | 214° |
| 2026-04-26 13:48 | -10.10869 | -36.88738 | 10010 ft | 288 kts | 214° |
| 2026-04-26 13:48 | -10.12482 | -36.89893 | 10004 ft | 288 kts | 214° |
| 2026-04-26 13:49 | -10.14120 | -36.91066 | 10004 ft | 288 kts | 214° |
| 2026-04-26 13:49 | -10.15758 | -36.92239 | 10002 ft | 288 kts | 214° |
| 2026-04-26 13:49 | -10.17390 | -36.93407 | 10006 ft | 287 kts | 214° |
| 2026-04-26 13:49 | -10.19027 | -36.94580 | 10003 ft | 287 kts | 214° |
| 2026-04-26 13:50 | -10.20659 | -36.95749 | 10007 ft | 287 kts | 214° |
| 2026-04-26 13:50 | -10.22290 | -36.96918 | 10005 ft | 287 kts | 214° |
| 2026-04-26 13:50 | -10.23929 | -36.98092 | 10003 ft | 287 kts | 214° |
| 2026-04-26 13:50 | -10.25563 | -36.99262 | 10003 ft | 287 kts | 214° |
| 2026-04-26 13:51 | -10.27199 | -37.00435 | 10003 ft | 288 kts | 214° |
| 2026-04-26 13:51 | -10.28815 | -37.01593 | 10001 ft | 288 kts | 214° |
| 2026-04-26 13:51 | -10.30450 | -37.02765 | 10007 ft | 287 kts | 214° |
| 2026-04-26 13:51 | -10.32086 | -37.03938 | 10003 ft | 288 kts | 214° |
| 2026-04-26 13:52 | -10.33718 | -37.05109 | 10006 ft | 288 kts | 214° |
| 2026-04-26 13:52 | -10.35352 | -37.06280 | 10007 ft | 288 kts | 214° |
| 2026-04-26 13:52 | -10.36988 | -37.07454 | 10009 ft | 287 kts | 214° |
| 2026-04-26 13:52 | -10.38619 | -37.08624 | 10006 ft | 287 kts | 214° |
| 2026-04-26 13:53 | -10.40250 | -37.09793 | 10007 ft | 287 kts | 214° |
| 2026-04-26 13:53 | -10.41882 | -37.10965 | 10008 ft | 288 kts | 214° |
| 2026-04-26 13:53 | -10.43518 | -37.12138 | 10010 ft | 288 kts | 214° |
| 2026-04-26 13:53 | -10.45152 | -37.13311 | 10007 ft | 288 kts | 214° |
| 2026-04-26 13:54 | -10.46789 | -37.14486 | 10007 ft | 288 kts | 214° |
| 2026-04-26 13:54 | -10.48424 | -37.15660 | 10011 ft | 288 kts | 214° |
| 2026-04-26 13:54 | -10.50059 | -37.16834 | 10011 ft | 288 kts | 214° |
| 2026-04-26 13:55 | -10.53330 | -37.19183 | 10010 ft | 288 kts | 214° |
| 2026-04-26 13:55 | -10.54410 | -37.19959 | 10007 ft | 287 kts | 214° |
| 2026-04-26 13:55 | -10.58211 | -37.22689 | 10009 ft | 287 kts | 214° |
| 2026-04-26 13:56 | -10.59840 | -37.23860 | 10008 ft | 287 kts | 214° |
| 2026-04-26 13:56 | -10.61473 | -37.25033 | 10012 ft | 287 kts | 214° |
| 2026-04-26 13:56 | -10.63109 | -37.26209 | 10019 ft | 287 kts | 214° |
| 2026-04-26 13:56 | -10.64743 | -37.27383 | 10010 ft | 288 kts | 214° |
| 2026-04-26 13:57 | -10.66376 | -37.28559 | 10012 ft | 288 kts | 214° |
| 2026-04-26 13:57 | -10.68010 | -37.29734 | 10013 ft | 287 kts | 214° |
| 2026-04-26 13:57 | -10.69642 | -37.30907 | 10012 ft | 287 kts | 214° |
| 2026-04-26 13:57 | -10.71273 | -37.32079 | 10011 ft | 287 kts | 214° |
| 2026-04-26 13:58 | -10.72905 | -37.33254 | 10011 ft | 287 kts | 214° |
| 2026-04-26 13:58 | -10.74533 | -37.34425 | 10009 ft | 288 kts | 214° |
| 2026-04-26 13:58 | -10.76165 | -37.35599 | 10013 ft | 287 kts | 214° |
| 2026-04-26 13:58 | -10.77795 | -37.36772 | 10012 ft | 287 kts | 214° |
| 2026-04-26 13:59 | -10.79428 | -37.37947 | 10011 ft | 287 kts | 214° |
| 2026-04-26 13:59 | -10.81058 | -37.39121 | 10013 ft | 287 kts | 214° |
| 2026-04-26 13:59 | -10.82681 | -37.40289 | 10012 ft | 286 kts | 214° |
| 2026-04-26 14:00 | -10.87562 | -37.43805 | 10004 ft | 287 kts | 214° |
| 2026-04-26 14:00 | -10.89186 | -37.44975 | 10009 ft | 286 kts | 214° |
| 2026-04-26 14:00 | -10.90267 | -37.45752 | 10008 ft | 287 kts | 214° |
| 2026-04-26 14:01 | -10.92438 | -37.47317 | 10008 ft | 288 kts | 214° |
| 2026-04-26 14:01 | -10.94074 | -37.48496 | 10010 ft | 287 kts | 213° |
| 2026-04-26 14:01 | -10.95705 | -37.49670 | 10008 ft | 287 kts | 213° |
| 2026-04-26 14:01 | -10.97332 | -37.50843 | 10008 ft | 287 kts | 214° |
| 2026-04-26 14:02 | -10.98960 | -37.52018 | 10004 ft | 287 kts | 213° |
| 2026-04-26 14:02 | -11.00585 | -37.53190 | 10001 ft | 285 kts | 213° |
| 2026-04-26 14:02 | -11.02210 | -37.54360 | 10004 ft | 286 kts | 213° |
| 2026-04-26 14:02 | -11.03833 | -37.55531 | 10001 ft | 287 kts | 213° |
| 2026-04-26 14:03 | -11.05460 | -37.56705 | 10013 ft | 287 kts | 213° |
| 2026-04-26 14:03 | -11.07086 | -37.57878 | 10005 ft | 285 kts | 213° |
| 2026-04-26 14:03 | -11.08711 | -37.59050 | 10009 ft | 286 kts | 213° |
| 2026-04-26 14:03 | -11.10328 | -37.60218 | 10007 ft | 285 kts | 213° |
| 2026-04-26 14:04 | -11.11934 | -37.61375 | 10011 ft | 286 kts | 213° |
| 2026-04-26 14:04 | -11.13556 | -37.62546 | 10005 ft | 285 kts | 213° |
| 2026-04-26 14:04 | -11.15177 | -37.63717 | 10009 ft | 286 kts | 213° |
| 2026-04-26 14:04 | -11.16804 | -37.64892 | 10001 ft | 286 kts | 213° |
| 2026-04-26 14:05 | -11.17874 | -37.65664 | 10008 ft | 286 kts | 213° |
| 2026-04-26 14:05 | -11.19497 | -37.66836 | 10011 ft | 284 kts | 213° |
| 2026-04-26 14:05 | -11.21120 | -37.68008 | 10010 ft | 286 kts | 213° |
| 2026-04-26 14:05 | -11.22740 | -37.69179 | 10007 ft | 285 kts | 213° |
| 2026-04-26 14:06 | -11.24357 | -37.70347 | 10013 ft | 285 kts | 213° |
| 2026-04-26 14:06 | -11.25977 | -37.71517 | 10009 ft | 285 kts | 213° |
| 2026-04-26 14:06 | -11.27591 | -37.72684 | 10009 ft | 285 kts | 213° |
| 2026-04-26 14:06 | -11.29215 | -37.73858 | 10005 ft | 285 kts | 213° |
| 2026-04-26 14:07 | -11.30832 | -37.75026 | 10007 ft | 285 kts | 213° |
| 2026-04-26 14:07 | -11.32451 | -37.76197 | 10010 ft | 286 kts | 213° |
| 2026-04-26 14:07 | -11.34071 | -37.77368 | 10013 ft | 286 kts | 213° |
| 2026-04-26 14:07 | -11.35697 | -37.78545 | 10012 ft | 286 kts | 213° |
| 2026-04-26 14:08 | -11.37320 | -37.79718 | 10007 ft | 286 kts | 213° |
| 2026-04-26 14:08 | -11.38943 | -37.80892 | 10008 ft | 286 kts | 213° |
| 2026-04-26 14:08 | -11.40546 | -37.82052 | 10005 ft | 286 kts | 213° |
| 2026-04-26 14:08 | -11.42166 | -37.83225 | 10004 ft | 286 kts | 213° |
| 2026-04-26 14:09 | -11.43786 | -37.84397 | 10008 ft | 286 kts | 213° |
| 2026-04-26 14:09 | -11.45412 | -37.85574 | 10006 ft | 286 kts | 213° |
| 2026-04-26 14:09 | -11.47034 | -37.86748 | 10010 ft | 286 kts | 213° |
| 2026-04-26 14:09 | -11.48655 | -37.87927 | 10006 ft | 286 kts | 213° |
| 2026-04-26 14:10 | -11.50277 | -37.89111 | 10008 ft | 286 kts | 213° |
| 2026-04-26 14:10 | -11.51893 | -37.90287 | 10012 ft | 286 kts | 213° |
| 2026-04-26 14:10 | -11.53515 | -37.91467 | 10010 ft | 287 kts | 213° |
| 2026-04-26 14:10 | -11.55143 | -37.92652 | 10003 ft | 287 kts | 214° |
| 2026-04-26 14:11 | -11.58371 | -37.95002 | 10008 ft | 286 kts | 214° |
| 2026-04-26 14:11 | -11.59994 | -37.96186 | 10009 ft | 287 kts | 214° |
| 2026-04-26 14:11 | -11.61617 | -37.97368 | 10007 ft | 286 kts | 214° |
| 2026-04-26 14:12 | -11.63238 | -37.98549 | 10007 ft | 286 kts | 213° |
| 2026-04-26 14:12 | -11.64857 | -37.99730 | 10007 ft | 286 kts | 214° |
| 2026-04-26 14:12 | -11.66478 | -38.00911 | 10006 ft | 286 kts | 214° |
| 2026-04-26 14:12 | -11.68095 | -38.02090 | 10009 ft | 286 kts | 214° |
| 2026-04-26 14:13 | -11.71335 | -38.04453 | 10008 ft | 286 kts | 213° |
| 2026-04-26 14:13 | -11.72954 | -38.05633 | 10007 ft | 286 kts | 213° |
| 2026-04-26 14:13 | -11.74570 | -38.06811 | 10008 ft | 286 kts | 213° |
| 2026-04-26 14:14 | -11.76190 | -38.07993 | 10007 ft | 286 kts | 214° |
| 2026-04-26 14:14 | -11.77810 | -38.09176 | 10009 ft | 286 kts | 213° |
| 2026-04-26 14:14 | -11.79427 | -38.10355 | 10011 ft | 286 kts | 213° |
| 2026-04-26 14:14 | -11.81048 | -38.11539 | 10007 ft | 286 kts | 213° |
| 2026-04-26 14:15 | -11.82667 | -38.12720 | 10010 ft | 286 kts | 213° |
| 2026-04-26 14:15 | -11.84296 | -38.13909 | 10007 ft | 287 kts | 213° |
| 2026-04-26 14:15 | -11.85921 | -38.15096 | 10011 ft | 288 kts | 213° |
| 2026-04-26 14:15 | -11.87526 | -38.16269 | 10011 ft | 286 kts | 213° |
| 2026-04-26 14:16 | -11.89147 | -38.17452 | 10009 ft | 287 kts | 213° |
| 2026-04-26 14:16 | -11.90771 | -38.18637 | 10009 ft | 287 kts | 214° |
| 2026-04-26 14:16 | -11.92396 | -38.19827 | 10012 ft | 287 kts | 214° |
| 2026-04-26 14:16 | -11.94019 | -38.21012 | 10014 ft | 287 kts | 214° |
| 2026-04-26 14:17 | -11.95645 | -38.22199 | 10016 ft | 287 kts | 214° |
| 2026-04-26 14:17 | -11.97271 | -38.23389 | 10016 ft | 287 kts | 213° |
| 2026-04-26 14:17 | -11.98895 | -38.24576 | 10010 ft | 287 kts | 214° |
| 2026-04-26 14:17 | -12.00522 | -38.25766 | 10011 ft | 287 kts | 213° |
| 2026-04-26 14:18 | -12.02151 | -38.26955 | 10017 ft | 288 kts | 214° |
| 2026-04-26 14:18 | -12.03782 | -38.28149 | 10016 ft | 288 kts | 214° |
| 2026-04-26 14:18 | -12.05412 | -38.29342 | 10016 ft | 287 kts | 214° |
| 2026-04-26 14:18 | -12.07022 | -38.30520 | 10011 ft | 288 kts | 214° |
| 2026-04-26 14:19 | -12.08651 | -38.31712 | 10011 ft | 288 kts | 213° |
| 2026-04-26 14:19 | -12.10279 | -38.32903 | 10015 ft | 288 kts | 213° |
| 2026-04-26 14:19 | -12.11907 | -38.34095 | 10013 ft | 288 kts | 213° |
| 2026-04-26 14:19 | -12.13538 | -38.35289 | 10015 ft | 288 kts | 213° |
| 2026-04-26 14:20 | -12.15172 | -38.36486 | 10011 ft | 289 kts | 213° |
| 2026-04-26 14:20 | -12.16802 | -38.37679 | 10015 ft | 289 kts | 213° |
| 2026-04-26 14:20 | -12.18445 | -38.38881 | 10013 ft | 289 kts | 213° |
| 2026-04-26 14:20 | -12.20073 | -38.40075 | 10012 ft | 289 kts | 214° |
| 2026-04-26 14:21 | -12.21708 | -38.41273 | 10014 ft | 289 kts | 213° |
| 2026-04-26 14:21 | -12.23342 | -38.42469 | 10015 ft | 289 kts | 214° |
| 2026-04-26 14:21 | -12.24969 | -38.43662 | 10014 ft | 289 kts | 214° |
| 2026-04-26 14:21 | -12.26601 | -38.44858 | 10015 ft | 289 kts | 214° |
| 2026-04-26 14:22 | -12.28232 | -38.46054 | 10014 ft | 289 kts | 214° |
| 2026-04-26 14:22 | -12.29863 | -38.47250 | 10013 ft | 288 kts | 214° |
| 2026-04-26 14:22 | -12.31491 | -38.48444 | 10015 ft | 289 kts | 214° |
| 2026-04-26 14:22 | -12.33125 | -38.49642 | 10011 ft | 288 kts | 214° |
| 2026-04-26 14:23 | -12.34760 | -38.50841 | 10013 ft | 289 kts | 214° |
| 2026-04-26 14:23 | -12.36392 | -38.52039 | 10015 ft | 288 kts | 214° |
| 2026-04-26 14:23 | -12.38021 | -38.53234 | 10014 ft | 288 kts | 214° |
| 2026-04-26 14:23 | -12.39632 | -38.54417 | 10014 ft | 289 kts | 214° |
| 2026-04-26 14:24 | -12.41264 | -38.55614 | 10017 ft | 289 kts | 214° |
| 2026-04-26 14:24 | -12.42898 | -38.56813 | 10016 ft | 289 kts | 214° |
| 2026-04-26 14:24 | -12.44533 | -38.58014 | 10013 ft | 289 kts | 214° |
| 2026-04-26 14:24 | -12.46164 | -38.59212 | 10012 ft | 289 kts | 214° |
| 2026-04-26 14:25 | -12.47802 | -38.60414 | 10014 ft | 290 kts | 214° |
| 2026-04-26 14:25 | -12.49439 | -38.61617 | 10013 ft | 289 kts | 214° |
| 2026-04-26 14:25 | -12.51072 | -38.62817 | 10016 ft | 289 kts | 214° |
| 2026-04-26 14:25 | -12.52705 | -38.64017 | 10017 ft | 289 kts | 214° |
| 2026-04-26 14:26 | -12.54340 | -38.65219 | 10013 ft | 289 kts | 214° |
| 2026-04-26 14:26 | -12.55981 | -38.66425 | 10014 ft | 289 kts | 214° |
| 2026-04-26 14:26 | -12.57620 | -38.67630 | 10015 ft | 290 kts | 214° |
| 2026-04-26 14:26 | -12.59261 | -38.68836 | 10016 ft | 290 kts | 214° |
| 2026-04-26 14:27 | -12.60901 | -38.70042 | 10015 ft | 290 kts | 214° |
| 2026-04-26 14:27 | -12.62539 | -38.71247 | 10015 ft | 290 kts | 214° |
| 2026-04-26 14:27 | -12.64178 | -38.72453 | 10020 ft | 290 kts | 214° |
| 2026-04-26 14:27 | -12.65819 | -38.73660 | 10020 ft | 290 kts | 214° |
| 2026-04-26 14:28 | -12.67437 | -38.74852 | 10016 ft | 290 kts | 214° |
| 2026-04-26 14:28 | -12.69077 | -38.76058 | 10016 ft | 290 kts | 214° |
| 2026-04-26 14:28 | -12.70719 | -38.77266 | 10017 ft | 290 kts | 214° |
| 2026-04-26 14:28 | -12.72358 | -38.78474 | 10015 ft | 290 kts | 214° |
| 2026-04-26 14:29 | -12.73997 | -38.79680 | 10018 ft | 290 kts | 214° |
| 2026-04-26 14:29 | -12.75635 | -38.80888 | 10018 ft | 290 kts | 214° |
| 2026-04-26 14:29 | -12.77269 | -38.82096 | 10014 ft | 290 kts | 214° |
| 2026-04-26 14:29 | -12.78906 | -38.83304 | 10011 ft | 290 kts | 214° |
| 2026-04-26 14:30 | -12.80544 | -38.84511 | 10014 ft | 290 kts | 214° |
| 2026-04-26 14:30 | -12.82179 | -38.85718 | 10015 ft | 290 kts | 214° |
| 2026-04-26 14:30 | -12.83812 | -38.86925 | 10014 ft | 290 kts | 214° |
| 2026-04-26 14:30 | -12.85450 | -38.88134 | 10014 ft | 290 kts | 214° |
| 2026-04-26 14:31 | -12.87085 | -38.89343 | 10014 ft | 290 kts | 214° |
| 2026-04-26 14:31 | -12.88698 | -38.90537 | 10013 ft | 290 kts | 214° |
| 2026-04-26 14:31 | -12.90336 | -38.91751 | 10017 ft | 290 kts | 214° |
| 2026-04-26 14:31 | -12.91969 | -38.92958 | 10011 ft | 290 kts | 214° |
| 2026-04-26 14:32 | -12.93603 | -38.94170 | 10009 ft | 290 kts | 214° |
| 2026-04-26 14:32 | -12.95239 | -38.95382 | 10015 ft | 290 kts | 214° |
| 2026-04-26 14:32 | -12.96877 | -38.96596 | 10015 ft | 290 kts | 214° |
| 2026-04-26 14:32 | -12.98509 | -38.97806 | 10020 ft | 290 kts | 214° |
| 2026-04-26 14:33 | -13.00147 | -38.99019 | 10012 ft | 290 kts | 214° |
| 2026-04-26 14:33 | -13.01788 | -39.00235 | 10013 ft | 291 kts | 214° |
| 2026-04-26 14:33 | -13.03419 | -39.01446 | 10011 ft | 290 kts | 214° |
| 2026-04-26 14:33 | -13.05053 | -39.02658 | 10011 ft | 289 kts | 214° |
| 2026-04-26 14:34 | -13.06684 | -39.03867 | 10009 ft | 289 kts | 214° |
| 2026-04-26 14:34 | -13.08319 | -39.05080 | 10012 ft | 290 kts | 214° |
| 2026-04-26 14:34 | -13.09956 | -39.06295 | 10014 ft | 290 kts | 214° |
| 2026-04-26 14:34 | -13.11567 | -39.07490 | 10013 ft | 290 kts | 214° |
| 2026-04-26 14:35 | -13.13204 | -39.08705 | 10014 ft | 290 kts | 214° |
| 2026-04-26 14:35 | -13.14836 | -39.09917 | 10021 ft | 290 kts | 214° |
| 2026-04-26 14:35 | -13.16470 | -39.11130 | 10017 ft | 290 kts | 214° |
| 2026-04-26 14:35 | -13.18105 | -39.12344 | 10018 ft | 289 kts | 214° |
| 2026-04-26 14:36 | -13.19736 | -39.13555 | 10017 ft | 290 kts | 214° |
| 2026-04-26 14:36 | -13.21369 | -39.14768 | 10016 ft | 290 kts | 214° |
| 2026-04-26 14:36 | -13.23003 | -39.15982 | 10019 ft | 290 kts | 214° |
| 2026-04-26 14:36 | -13.24639 | -39.17198 | 10013 ft | 290 kts | 214° |
| 2026-04-26 14:37 | -13.26273 | -39.18412 | 10016 ft | 290 kts | 214° |
| 2026-04-26 14:37 | -13.27907 | -39.19625 | 10015 ft | 289 kts | 214° |
| 2026-04-26 14:37 | -13.29536 | -39.20838 | 10015 ft | 290 kts | 214° |
| 2026-04-26 14:37 | -13.31170 | -39.22054 | 10016 ft | 290 kts | 214° |
| 2026-04-26 14:38 | -13.32800 | -39.23265 | 10013 ft | 289 kts | 214° |
| 2026-04-26 14:38 | -13.34430 | -39.24478 | 10014 ft | 289 kts | 214° |
| 2026-04-26 14:38 | -13.36062 | -39.25692 | 10014 ft | 289 kts | 214° |
| 2026-04-26 14:38 | -13.37138 | -39.26493 | 10017 ft | 289 kts | 214° |
| 2026-04-26 14:39 | -13.39321 | -39.28117 | 10017 ft | 290 kts | 214° |
| 2026-04-26 14:39 | -13.40937 | -39.29320 | 10020 ft | 290 kts | 214° |
| 2026-04-26 14:39 | -13.42572 | -39.30538 | 10016 ft | 290 kts | 215° |
| 2026-04-26 14:39 | -13.44209 | -39.31756 | 10017 ft | 290 kts | 214° |
| 2026-04-26 14:40 | -13.45843 | -39.32973 | 10014 ft | 290 kts | 215° |
| 2026-04-26 14:40 | -13.47474 | -39.34195 | 10020 ft | 290 kts | 215° |
| 2026-04-26 14:40 | -13.49104 | -39.35418 | 10023 ft | 290 kts | 215° |
| 2026-04-26 14:40 | -13.50737 | -39.36641 | 10016 ft | 290 kts | 215° |
| 2026-04-26 14:41 | -13.52371 | -39.37864 | 10021 ft | 290 kts | 215° |
| 2026-04-26 14:41 | -13.54004 | -39.39085 | 10023 ft | 291 kts | 215° |
| 2026-04-26 14:41 | -13.55636 | -39.40309 | 10021 ft | 290 kts | 215° |
| 2026-04-26 14:41 | -13.57269 | -39.41532 | 10022 ft | 290 kts | 215° |
| 2026-04-26 14:42 | -13.58896 | -39.42751 | 10021 ft | 290 kts | 215° |
| 2026-04-26 14:42 | -13.60529 | -39.43975 | 10021 ft | 290 kts | 215° |
| 2026-04-26 14:42 | -13.62160 | -39.45199 | 10027 ft | 290 kts | 215° |
| 2026-04-26 14:42 | -13.63794 | -39.46422 | 10027 ft | 290 kts | 215° |
| 2026-04-26 14:43 | -13.65407 | -39.47633 | 10029 ft | 290 kts | 215° |
| 2026-04-26 14:43 | -13.67038 | -39.48856 | 10025 ft | 290 kts | 215° |
| 2026-04-26 14:43 | -13.68671 | -39.50081 | 10022 ft | 291 kts | 215° |
| 2026-04-26 14:43 | -13.70308 | -39.51309 | 10025 ft | 290 kts | 215° |
| 2026-04-26 14:44 | -13.71940 | -39.52533 | 10026 ft | 290 kts | 215° |
| 2026-04-26 14:44 | -13.73570 | -39.53758 | 10029 ft | 290 kts | 215° |
| 2026-04-26 14:44 | -13.75202 | -39.54983 | 10026 ft | 290 kts | 215° |
| 2026-04-26 14:44 | -13.76836 | -39.56209 | 10030 ft | 291 kts | 215° |
| 2026-04-26 14:45 | -13.78469 | -39.57436 | 10026 ft | 291 kts | 215° |
| 2026-04-26 14:45 | -13.79553 | -39.58250 | 10025 ft | 291 kts | 215° |
| 2026-04-26 14:45 | -13.81738 | -39.59891 | 10025 ft | 291 kts | 215° |
| 2026-04-26 14:45 | -13.83376 | -39.61121 | 10023 ft | 291 kts | 215° |
| 2026-04-26 14:46 | -13.84991 | -39.62335 | 10023 ft | 291 kts | 215° |
| 2026-04-26 14:46 | -13.86624 | -39.63563 | 10023 ft | 291 kts | 215° |
| 2026-04-26 14:46 | -13.88255 | -39.64789 | 10019 ft | 291 kts | 215° |
| 2026-04-26 14:46 | -13.89893 | -39.66020 | 10022 ft | 291 kts | 215° |
| 2026-04-26 14:47 | -13.91529 | -39.67251 | 10026 ft | 291 kts | 216° |
| 2026-04-26 14:47 | -13.93160 | -39.68477 | 10017 ft | 290 kts | 215° |
| 2026-04-26 14:47 | -13.94794 | -39.69707 | 10022 ft | 291 kts | 215° |
| 2026-04-26 14:47 | -13.96432 | -39.70939 | 10020 ft | 291 kts | 216° |
| 2026-04-26 14:48 | -13.98067 | -39.72170 | 10023 ft | 291 kts | 216° |
| 2026-04-26 14:48 | -13.99704 | -39.73402 | 10020 ft | 291 kts | 216° |
| 2026-04-26 14:48 | -14.01337 | -39.74631 | 10023 ft | 291 kts | 216° |
| 2026-04-26 14:48 | -14.02973 | -39.75862 | 10021 ft | 291 kts | 216° |
| 2026-04-26 14:49 | -14.04588 | -39.77079 | 10019 ft | 291 kts | 216° |
| 2026-04-26 14:49 | -14.06219 | -39.78309 | 10021 ft | 291 kts | 216° |
| 2026-04-26 14:49 | -14.07850 | -39.79537 | 10022 ft | 291 kts | 216° |
| 2026-04-26 14:49 | -14.09481 | -39.80765 | 10021 ft | 291 kts | 216° |
| 2026-04-26 14:50 | -14.11111 | -39.81994 | 10023 ft | 291 kts | 216° |
| 2026-04-26 14:50 | -14.12744 | -39.83225 | 10025 ft | 291 kts | 216° |
| 2026-04-26 14:50 | -14.14375 | -39.84455 | 10026 ft | 291 kts | 216° |
| 2026-04-26 14:50 | -14.16008 | -39.85687 | 10021 ft | 291 kts | 216° |
| 2026-04-26 14:51 | -14.17640 | -39.86917 | 10023 ft | 291 kts | 216° |
| 2026-04-26 14:51 | -14.19273 | -39.88149 | 10027 ft | 291 kts | 216° |
| 2026-04-26 14:51 | -14.20902 | -39.89378 | 10029 ft | 291 kts | 216° |
| 2026-04-26 14:51 | -14.22540 | -39.90614 | 10030 ft | 291 kts | 216° |
| 2026-04-26 14:52 | -14.24174 | -39.91847 | 10022 ft | 291 kts | 216° |
| 2026-04-26 14:52 | -14.25805 | -39.93078 | 10030 ft | 290 kts | 216° |
| 2026-04-26 14:52 | -14.26885 | -39.93894 | 10030 ft | 290 kts | 216° |
| 2026-04-26 14:52 | -14.28516 | -39.95127 | 10034 ft | 291 kts | 216° |
| 2026-04-26 14:53 | -14.30150 | -39.96359 | 10033 ft | 291 kts | 216° |
| 2026-04-26 14:53 | -14.31780 | -39.97591 | 10029 ft | 290 kts | 216° |
| 2026-04-26 14:53 | -14.33940 | -39.99223 | 10028 ft | 289 kts | 216° |
| 2026-04-26 14:53 | -14.35571 | -40.00455 | 10029 ft | 292 kts | 216° |
| 2026-04-26 14:54 | -14.36686 | -40.01298 | 10037 ft | 300 kts | 216° |
| 2026-04-26 14:54 | -14.39089 | -40.03114 | 10241 ft | 347 kts | 216° |
| 2026-04-26 14:54 | -14.40451 | -40.04145 | 10350 ft | 370 kts | 216° |
| 2026-04-26 14:54 | -14.42606 | -40.05775 | 10680 ft | 394 kts | 216° |
| 2026-04-26 14:55 | -14.44843 | -40.07466 | 11442 ft | 403 kts | 217° |
| 2026-04-26 14:55 | -14.47128 | -40.09194 | 12270 ft | 411 kts | 217° |
| 2026-04-26 14:55 | -14.49447 | -40.10951 | 13103 ft | 418 kts | 217° |
| 2026-04-26 14:55 | -14.51811 | -40.12741 | 13924 ft | 424 kts | 217° |
| 2026-04-26 14:56 | -14.54211 | -40.14560 | 14602 ft | 431 kts | 217° |
| 2026-04-26 14:56 | -14.56615 | -40.16380 | 15273 ft | 438 kts | 216° |
| 2026-04-26 14:56 | -14.59084 | -40.18250 | 15929 ft | 445 kts | 216° |
| 2026-04-26 14:56 | -14.61599 | -40.20155 | 16592 ft | 450 kts | 216° |
| 2026-04-26 14:57 | -14.64140 | -40.22083 | 17245 ft | 455 kts | 215° |
| 2026-04-26 14:57 | -14.66702 | -40.24026 | 17887 ft | 460 kts | 215° |
| 2026-04-26 14:57 | -14.69294 | -40.25993 | 18436 ft | 465 kts | 215° |
| 2026-04-26 14:57 | -14.71918 | -40.27984 | 18944 ft | 469 kts | 215° |
| 2026-04-26 14:58 | -14.74558 | -40.29989 | 19453 ft | 473 kts | 215° |
| 2026-04-26 14:58 | -14.77219 | -40.32010 | 19959 ft | 476 kts | 215° |
| 2026-04-26 14:58 | -14.79900 | -40.34047 | 20450 ft | 480 kts | 215° |
| 2026-04-26 14:58 | -14.82600 | -40.36098 | 20942 ft | 483 kts | 215° |
| 2026-04-26 14:59 | -14.85311 | -40.38159 | 21418 ft | 486 kts | 216° |
| 2026-04-26 14:59 | -14.88048 | -40.40240 | 21886 ft | 489 kts | 216° |
| 2026-04-26 14:59 | -14.90795 | -40.42330 | 22345 ft | 492 kts | 216° |
| 2026-04-26 14:59 | -14.92626 | -40.43723 | 22663 ft | 494 kts | 216° |
| 2026-04-26 15:00 | -14.96346 | -40.46554 | 23289 ft | 498 kts | 216° |
| 2026-04-26 15:00 | -14.99106 | -40.48656 | 23720 ft | 501 kts | 216° |
| 2026-04-26 15:00 | -15.01924 | -40.50802 | 24099 ft | 504 kts | 216° |
| 2026-04-26 15:00 | -15.04748 | -40.52954 | 24456 ft | 506 kts | 216° |
| 2026-04-26 15:01 | -15.07593 | -40.55122 | 24820 ft | 508 kts | 216° |
| 2026-04-26 15:01 | -15.10441 | -40.57293 | 25180 ft | 511 kts | 216° |
| 2026-04-26 15:01 | -15.13308 | -40.59480 | 25523 ft | 513 kts | 216° |
| 2026-04-26 15:01 | -15.16194 | -40.61682 | 25891 ft | 515 kts | 216° |
| 2026-04-26 15:02 | -15.19083 | -40.63887 | 26230 ft | 518 kts | 216° |
| 2026-04-26 15:02 | -15.21992 | -40.66108 | 26585 ft | 520 kts | 216° |
| 2026-04-26 15:02 | -15.24911 | -40.68338 | 26926 ft | 522 kts | 216° |
| 2026-04-26 15:02 | -15.27847 | -40.70580 | 27262 ft | 525 kts | 216° |
| 2026-04-26 15:03 | -15.30788 | -40.72827 | 27592 ft | 527 kts | 216° |
| 2026-04-26 15:03 | -15.33739 | -40.75085 | 27917 ft | 529 kts | 216° |
| 2026-04-26 15:03 | -15.36705 | -40.77353 | 28244 ft | 531 kts | 216° |
| 2026-04-26 15:03 | -15.39640 | -40.79599 | 28546 ft | 533 kts | 216° |
| 2026-04-26 15:04 | -15.42632 | -40.81889 | 28865 ft | 535 kts | 216° |
| 2026-04-26 15:04 | -15.45628 | -40.84183 | 29164 ft | 537 kts | 216° |
| 2026-04-26 15:04 | -15.48640 | -40.86490 | 29458 ft | 539 kts | 216° |
| 2026-04-26 15:04 | -15.51655 | -40.88800 | 29741 ft | 541 kts | 216° |
| 2026-04-26 15:05 | -15.54690 | -40.91126 | 30013 ft | 542 kts | 216° |
| 2026-04-26 15:05 | -15.56699 | -40.92666 | 30220 ft | 543 kts | 216° |
| 2026-04-26 15:05 | -15.60759 | -40.95781 | 30713 ft | 541 kts | 216° |
| 2026-04-26 15:05 | -15.63780 | -40.98100 | 31107 ft | 539 kts | 216° |
| 2026-04-26 15:06 | -15.66791 | -41.00411 | 31485 ft | 538 kts | 216° |
| 2026-04-26 15:06 | -15.69801 | -41.02722 | 31882 ft | 537 kts | 216° |
| 2026-04-26 15:06 | -15.72766 | -41.05001 | 32280 ft | 536 kts | 216° |
| 2026-04-26 15:06 | -15.75764 | -41.07305 | 32675 ft | 535 kts | 216° |
| 2026-04-26 15:07 | -15.81741 | -41.11901 | 33470 ft | 533 kts | 216° |
| 2026-04-26 15:07 | -15.84714 | -41.14188 | 33879 ft | 532 kts | 216° |
| 2026-04-26 15:07 | -15.87690 | -41.16479 | 34263 ft | 531 kts | 216° |
| 2026-04-26 15:08 | -15.90652 | -41.18760 | 34615 ft | 530 kts | 217° |
| 2026-04-26 15:08 | -15.93614 | -41.21041 | 34956 ft | 530 kts | 217° |
| 2026-04-26 15:08 | -15.96582 | -41.23328 | 35307 ft | 529 kts | 217° |
| 2026-04-26 15:08 | -15.99543 | -41.25610 | 35652 ft | 529 kts | 217° |
| 2026-04-26 15:09 | -16.02493 | -41.27884 | 36000 ft | 528 kts | 217° |
| 2026-04-26 15:09 | -16.05438 | -41.30155 | 36345 ft | 527 kts | 217° |
| 2026-04-26 15:09 | -16.08386 | -41.32430 | 36690 ft | 526 kts | 217° |
| 2026-04-26 15:09 | -16.11331 | -41.34702 | 37049 ft | 525 kts | 217° |
| 2026-04-26 15:10 | -16.14259 | -41.36963 | 37393 ft | 524 kts | 217° |
| 2026-04-26 15:10 | -16.16191 | -41.38456 | 37625 ft | 524 kts | 217° |
| 2026-04-26 15:10 | -16.20105 | -41.41480 | 38020 ft | 522 kts | 217° |
| 2026-04-26 15:10 | -16.22987 | -41.43707 | 38005 ft | 510 kts | 217° |
| 2026-04-26 15:11 | -16.25799 | -41.45881 | 38004 ft | 496 kts | 217° |
| 2026-04-26 15:11 | -16.28549 | -41.48008 | 38012 ft | 492 kts | 217° |
| 2026-04-26 15:11 | -16.34091 | -41.52298 | 37998 ft | 497 kts | 217° |
| 2026-04-26 15:12 | -16.39638 | -41.56594 | 37999 ft | 497 kts | 217° |
| 2026-04-26 15:12 | -16.45147 | -41.60864 | 38002 ft | 497 kts | 217° |
| 2026-04-26 15:13 | -16.50690 | -41.65163 | 38000 ft | 497 kts | 217° |
| 2026-04-26 15:13 | -16.56243 | -41.69473 | 37994 ft | 497 kts | 217° |
| 2026-04-26 15:14 | -16.61783 | -41.73776 | 37992 ft | 496 kts | 217° |
| 2026-04-26 15:14 | -16.67321 | -41.78082 | 37993 ft | 496 kts | 217° |
| 2026-04-26 15:15 | -16.72860 | -41.82391 | 37998 ft | 496 kts | 217° |
| 2026-04-26 15:15 | -16.78359 | -41.86671 | 37997 ft | 496 kts | 217° |
| 2026-04-26 15:16 | -16.83892 | -41.90982 | 37994 ft | 496 kts | 217° |
| 2026-04-26 15:16 | -16.89419 | -41.95291 | 37997 ft | 496 kts | 217° |
| 2026-04-26 15:17 | -16.94016 | -41.98880 | 37999 ft | 496 kts | 218° |
| 2026-04-26 15:17 | -17.00473 | -42.03924 | 38001 ft | 496 kts | 218° |
| 2026-04-26 15:18 | -17.05997 | -42.08244 | 38003 ft | 496 kts | 218° |
| 2026-04-26 15:18 | -17.11514 | -42.12560 | 38009 ft | 495 kts | 218° |
| 2026-04-26 15:19 | -17.17034 | -42.16883 | 38006 ft | 495 kts | 218° |
| 2026-04-26 15:19 | -17.22519 | -42.21180 | 38009 ft | 495 kts | 218° |
| 2026-04-26 15:20 | -17.28034 | -42.25505 | 38016 ft | 495 kts | 218° |
| 2026-04-26 15:20 | -17.33546 | -42.29831 | 38021 ft | 495 kts | 218° |
| 2026-04-26 15:21 | -17.39057 | -42.34159 | 38023 ft | 495 kts | 218° |
| 2026-04-26 15:21 | -17.44554 | -42.38481 | 38024 ft | 494 kts | 218° |
| 2026-04-26 15:22 | -17.50029 | -42.42787 | 38021 ft | 494 kts | 218° |
| 2026-04-26 15:22 | -17.55556 | -42.47138 | 38027 ft | 494 kts | 218° |
| 2026-04-26 15:23 | -17.61012 | -42.51437 | 38022 ft | 494 kts | 218° |
| 2026-04-26 15:23 | -17.66509 | -42.55771 | 38023 ft | 494 kts | 218° |
| 2026-04-26 15:24 | -17.71990 | -42.60096 | 38023 ft | 493 kts | 218° |
| 2026-04-26 15:24 | -17.77474 | -42.64427 | 38020 ft | 493 kts | 218° |
| 2026-04-26 15:25 | -17.82066 | -42.68056 | 38028 ft | 493 kts | 218° |
| 2026-04-26 15:25 | -17.88437 | -42.73094 | 38028 ft | 493 kts | 218° |
| 2026-04-26 15:26 | -17.93915 | -42.77431 | 38027 ft | 493 kts | 218° |
| 2026-04-26 15:26 | -17.99392 | -42.81770 | 38026 ft | 493 kts | 218° |
| 2026-04-26 15:27 | -18.04882 | -42.86122 | 38029 ft | 494 kts | 218° |
| 2026-04-26 15:27 | -18.10363 | -42.90471 | 38030 ft | 493 kts | 218° |
| 2026-04-26 15:28 | -18.15836 | -42.94818 | 38027 ft | 493 kts | 218° |
| 2026-04-26 15:28 | -18.21307 | -42.99166 | 38030 ft | 492 kts | 218° |
| 2026-04-26 15:29 | -18.26766 | -43.03508 | 38029 ft | 492 kts | 218° |
| 2026-04-26 15:30 | -18.37691 | -43.12209 | 38028 ft | 492 kts | 218° |
| 2026-04-26 15:30 | -18.43129 | -43.16585 | 38029 ft | 492 kts | 219° |
| 2026-04-26 15:31 | -18.51228 | -43.23151 | 38029 ft | 492 kts | 219° |
| 2026-04-26 15:32 | -18.57571 | -43.28300 | 38031 ft | 492 kts | 219° |
| 2026-04-26 15:32 | -18.64787 | -43.34146 | 38033 ft | 492 kts | 218° |
| 2026-04-26 15:33 | -18.70263 | -43.38460 | 38033 ft | 492 kts | 218° |
| 2026-04-26 15:33 | -18.75729 | -43.42820 | 38031 ft | 492 kts | 218° |
| 2026-04-26 15:34 | -18.81194 | -43.47161 | 38028 ft | 492 kts | 218° |
| 2026-04-26 15:34 | -18.86660 | -43.51515 | 38034 ft | 492 kts | 218° |
| 2026-04-26 15:35 | -18.92161 | -43.55726 | 38032 ft | 492 kts | 218° |
| 2026-04-26 15:35 | -18.97666 | -43.60032 | 38028 ft | 493 kts | 217° |
| 2026-04-26 15:36 | -19.03226 | -43.64255 | 38037 ft | 492 kts | 217° |
| 2026-04-26 15:36 | -19.08753 | -43.68531 | 38038 ft | 492 kts | 217° |
| 2026-04-26 15:37 | -19.14304 | -43.72787 | 38025 ft | 492 kts | 217° |
| 2026-04-26 15:37 | -19.19838 | -43.77056 | 38023 ft | 492 kts | 217° |
| 2026-04-26 15:38 | -19.25372 | -43.81316 | 38025 ft | 492 kts | 217° |
| 2026-04-26 15:38 | -19.30905 | -43.85587 | 38032 ft | 492 kts | 217° |
| 2026-04-26 15:39 | -19.36433 | -43.89853 | 38045 ft | 492 kts | 218° |
| 2026-04-26 15:39 | -19.40088 | -43.92676 | 38068 ft | 491 kts | 218° |
| 2026-04-26 15:40 | -19.47476 | -43.98389 | 38098 ft | 491 kts | 218° |
| 2026-04-26 15:40 | -19.52999 | -44.02664 | 38119 ft | 491 kts | 218° |
| 2026-04-26 15:41 | -19.58485 | -44.06905 | 38119 ft | 491 kts | 217° |
| 2026-04-26 15:41 | -19.64032 | -44.11143 | 38109 ft | 491 kts | 218° |
| 2026-04-26 15:42 | -19.69569 | -44.15406 | 38088 ft | 491 kts | 218° |
| 2026-04-26 15:42 | -19.74172 | -44.18952 | 38067 ft | 491 kts | 218° |
| 2026-04-26 15:43 | -19.79688 | -44.23225 | 38048 ft | 491 kts | 218° |
| 2026-04-26 15:44 | -19.87972 | -44.29634 | 38026 ft | 491 kts | 218° |
| 2026-04-26 15:44 | -19.96240 | -44.36042 | 38022 ft | 490 kts | 218° |
| 2026-04-26 15:45 | -20.04514 | -44.42465 | 38026 ft | 490 kts | 218° |
| 2026-04-26 15:46 | -20.12767 | -44.48878 | 38023 ft | 490 kts | 218° |
| 2026-04-26 15:46 | -20.17341 | -44.52434 | 38025 ft | 489 kts | 218° |
| 2026-04-26 15:47 | -20.26476 | -44.59542 | 38024 ft | 489 kts | 218° |
| 2026-04-26 15:48 | -20.32000 | -44.63845 | 38025 ft | 489 kts | 218° |
| 2026-04-26 15:48 | -20.37449 | -44.68094 | 38023 ft | 489 kts | 219° |
| 2026-04-26 15:49 | -20.42938 | -44.72377 | 38021 ft | 488 kts | 219° |
| 2026-04-26 15:49 | -20.48417 | -44.76657 | 38021 ft | 488 kts | 219° |
| 2026-04-26 15:50 | -20.53908 | -44.80944 | 38020 ft | 488 kts | 219° |
| 2026-04-26 15:50 | -20.59386 | -44.85222 | 38019 ft | 488 kts | 219° |
| 2026-04-26 15:51 | -20.64862 | -44.89505 | 38019 ft | 487 kts | 219° |
| 2026-04-26 15:51 | -20.70304 | -44.93764 | 38022 ft | 487 kts | 219° |
| 2026-04-26 15:52 | -20.75769 | -44.98045 | 38015 ft | 487 kts | 219° |
| 2026-04-26 15:52 | -20.81221 | -45.02336 | 38017 ft | 486 kts | 219° |
| 2026-04-26 15:53 | -20.86682 | -45.06632 | 38020 ft | 486 kts | 219° |
| 2026-04-26 15:53 | -20.92132 | -45.10924 | 38012 ft | 486 kts | 219° |
| 2026-04-26 15:54 | -20.97579 | -45.15212 | 38015 ft | 486 kts | 219° |
| 2026-04-26 15:54 | -21.03023 | -45.19504 | 38007 ft | 486 kts | 219° |
| 2026-04-26 15:55 | -21.08432 | -45.23772 | 38007 ft | 486 kts | 219° |
| 2026-04-26 15:55 | -21.13875 | -45.28071 | 38010 ft | 486 kts | 219° |
| 2026-04-26 15:56 | -21.19316 | -45.32371 | 38008 ft | 486 kts | 220° |
| 2026-04-26 15:56 | -21.24748 | -45.36670 | 38002 ft | 486 kts | 220° |
| 2026-04-26 15:57 | -21.30175 | -45.40967 | 38005 ft | 485 kts | 220° |
| 2026-04-26 15:57 | -21.35614 | -45.45279 | 38002 ft | 485 kts | 220° |
| 2026-04-26 15:58 | -21.41040 | -45.49584 | 38006 ft | 485 kts | 220° |
| 2026-04-26 15:58 | -21.46471 | -45.53898 | 38008 ft | 485 kts | 220° |
| 2026-04-26 15:59 | -21.51904 | -45.58209 | 38002 ft | 486 kts | 220° |
| 2026-04-26 15:59 | -21.57369 | -45.62476 | 38008 ft | 485 kts | 220° |
| 2026-04-26 16:00 | -21.62822 | -45.66772 | 38003 ft | 486 kts | 220° |
| 2026-04-26 16:00 | -21.68243 | -45.71031 | 37996 ft | 486 kts | 220° |
| 2026-04-26 16:01 | -21.73693 | -45.75324 | 38003 ft | 486 kts | 220° |
| 2026-04-26 16:01 | -21.79146 | -45.79619 | 38006 ft | 486 kts | 220° |
| 2026-04-26 16:02 | -21.84598 | -45.83920 | 38008 ft | 485 kts | 220° |
| 2026-04-26 16:02 | -21.90041 | -45.88217 | 38006 ft | 485 kts | 220° |
| 2026-04-26 16:03 | -21.95485 | -45.92520 | 38015 ft | 485 kts | 220° |
| 2026-04-26 16:03 | -22.00929 | -45.96826 | 38010 ft | 485 kts | 220° |
| 2026-04-26 16:04 | -22.06366 | -46.01132 | 38006 ft | 485 kts | 220° |
| 2026-04-26 16:04 | -22.11797 | -46.05435 | 38004 ft | 484 kts | 220° |
| 2026-04-26 16:05 | -22.17194 | -46.09718 | 38004 ft | 484 kts | 220° |
| 2026-04-26 16:05 | -22.22617 | -46.14026 | 38007 ft | 484 kts | 220° |
| 2026-04-26 16:06 | -22.28044 | -46.18340 | 38001 ft | 483 kts | 220° |
| 2026-04-26 16:06 | -22.33734 | -46.22233 | 38007 ft | 490 kts | 207° |
| 2026-04-26 16:07 | -22.39989 | -46.25198 | 38001 ft | 491 kts | 208° |
| 2026-04-26 16:07 | -22.46235 | -46.28137 | 38000 ft | 489 kts | 208° |
| 2026-04-26 16:08 | -22.52477 | -46.31093 | 38004 ft | 489 kts | 208° |
| 2026-04-26 16:08 | -22.58698 | -46.34033 | 37994 ft | 488 kts | 208° |
| 2026-04-26 16:09 | -22.64918 | -46.36980 | 37999 ft | 488 kts | 208° |
| 2026-04-26 16:09 | -22.71095 | -46.39907 | 37998 ft | 487 kts | 208° |
| 2026-04-26 16:10 | -22.77297 | -46.42850 | 37992 ft | 486 kts | 208° |
| 2026-04-26 16:10 | -22.83492 | -46.45792 | 37972 ft | 486 kts | 208° |
| 2026-04-26 16:11 | -22.89690 | -46.48740 | 37980 ft | 486 kts | 208° |
| 2026-04-26 16:11 | -22.95893 | -46.51691 | 37980 ft | 486 kts | 208° |
| 2026-04-26 16:12 | -23.02083 | -46.54641 | 37962 ft | 486 kts | 208° |
| 2026-04-26 16:12 | -23.11367 | -46.59069 | 37972 ft | 485 kts | 208° |
| 2026-04-26 16:13 | -23.17552 | -46.62024 | 37980 ft | 485 kts | 208° |
| 2026-04-26 16:13 | -23.23725 | -46.64974 | 37987 ft | 485 kts | 209° |
| 2026-04-26 16:14 | -23.29899 | -46.67930 | 37997 ft | 484 kts | 209° |
| 2026-04-26 16:15 | -23.39112 | -46.72353 | 38015 ft | 483 kts | 209° |
| 2026-04-26 16:15 | -23.45257 | -46.75305 | 38018 ft | 483 kts | 209° |
| 2026-04-26 16:16 | -23.54392 | -46.79702 | 38010 ft | 482 kts | 209° |
| 2026-04-26 16:16 | -23.60527 | -46.82647 | 38030 ft | 482 kts | 209° |
| 2026-04-26 16:17 | -23.66666 | -46.85592 | 38017 ft | 481 kts | 209° |
| 2026-04-26 16:17 | -23.72800 | -46.88543 | 37994 ft | 482 kts | 209° |
| 2026-04-26 16:18 | -23.81947 | -46.92961 | 37946 ft | 481 kts | 210° |
| 2026-04-26 16:19 | -23.91158 | -46.97414 | 37920 ft | 480 kts | 210° |
| 2026-04-26 16:20 | -24.00277 | -47.01833 | 37909 ft | 480 kts | 210° |
| 2026-04-26 16:20 | -24.09462 | -47.06291 | 37878 ft | 479 kts | 210° |
| 2026-04-26 16:21 | -24.15509 | -47.09229 | 37881 ft | 478 kts | 210° |
| 2026-04-26 16:21 | -24.21583 | -47.12182 | 37876 ft | 478 kts | 210° |
| 2026-04-26 16:22 | -24.27535 | -47.15365 | 37900 ft | 470 kts | 218° |
| 2026-04-26 16:22 | -24.33062 | -47.19189 | 37877 ft | 469 kts | 218° |
| 2026-04-26 16:23 | -24.38569 | -47.23025 | 37858 ft | 470 kts | 218° |
| 2026-04-26 16:23 | -24.44091 | -47.26859 | 37869 ft | 469 kts | 218° |
| 2026-04-26 16:24 | -24.49606 | -47.30701 | 37866 ft | 468 kts | 218° |
| 2026-04-26 16:24 | -24.55106 | -47.34532 | 37866 ft | 468 kts | 218° |
| 2026-04-26 16:25 | -24.60579 | -47.38351 | 37868 ft | 468 kts | 218° |
| 2026-04-26 16:25 | -24.66110 | -47.42213 | 37868 ft | 468 kts | 219° |
| 2026-04-26 16:26 | -24.70673 | -47.45403 | 37870 ft | 467 kts | 218° |
| 2026-04-26 16:26 | -24.77050 | -47.49865 | 37871 ft | 467 kts | 219° |
| 2026-04-26 16:27 | -24.82532 | -47.53705 | 37865 ft | 467 kts | 219° |
| 2026-04-26 16:27 | -24.88010 | -47.57548 | 37863 ft | 466 kts | 219° |
| 2026-04-26 16:28 | -24.93481 | -47.61388 | 37863 ft | 466 kts | 219° |
| 2026-04-26 16:28 | -24.98027 | -47.64582 | 37865 ft | 466 kts | 219° |
| 2026-04-26 16:29 | -25.03487 | -47.68423 | 37863 ft | 465 kts | 219° |
| 2026-04-26 16:29 | -25.09823 | -47.72886 | 37861 ft | 465 kts | 219° |
| 2026-04-26 16:30 | -25.14386 | -47.76102 | 37860 ft | 464 kts | 219° |
| 2026-04-26 16:30 | -25.19789 | -47.79915 | 37862 ft | 463 kts | 219° |
| 2026-04-26 16:31 | -25.25246 | -47.83770 | 37862 ft | 462 kts | 219° |
| 2026-04-26 16:31 | -25.30622 | -47.87571 | 37859 ft | 462 kts | 219° |
| 2026-04-26 16:32 | -25.36036 | -47.91407 | 37858 ft | 461 kts | 219° |
| 2026-04-26 16:32 | -25.41437 | -47.95238 | 37856 ft | 461 kts | 219° |
| 2026-04-26 16:33 | -25.46835 | -47.99070 | 37852 ft | 460 kts | 219° |
| 2026-04-26 16:33 | -25.52230 | -48.02904 | 37855 ft | 460 kts | 219° |
| 2026-04-26 16:34 | -25.57621 | -48.06740 | 37853 ft | 460 kts | 219° |
| 2026-04-26 16:34 | -25.63004 | -48.10574 | 37853 ft | 460 kts | 219° |
| 2026-04-26 16:35 | -25.68389 | -48.14403 | 37852 ft | 460 kts | 219° |
| 2026-04-26 16:35 | -25.73770 | -48.18233 | 37841 ft | 459 kts | 220° |
| 2026-04-26 16:36 | -25.79135 | -48.22057 | 37844 ft | 458 kts | 220° |
| 2026-04-26 16:36 | -25.84459 | -48.25855 | 37851 ft | 457 kts | 220° |
| 2026-04-26 16:37 | -25.89806 | -48.29674 | 37856 ft | 457 kts | 220° |
| 2026-04-26 16:37 | -25.95154 | -48.33498 | 37861 ft | 457 kts | 220° |
| 2026-04-26 16:38 | -26.00492 | -48.37319 | 37861 ft | 456 kts | 220° |
| 2026-04-26 16:38 | -26.05822 | -48.41138 | 37864 ft | 456 kts | 220° |
| 2026-04-26 16:39 | -26.11157 | -48.44964 | 37874 ft | 455 kts | 220° |
| 2026-04-26 16:39 | -26.16478 | -48.48786 | 37876 ft | 455 kts | 220° |
| 2026-04-26 16:40 | -26.19143 | -48.50702 | 38005 ft | 456 kts | 220° |
| 2026-04-26 16:40 | -26.21809 | -48.52619 | 38387 ft | 456 kts | 220° |
| 2026-04-26 16:40 | -26.24469 | -48.54532 | 38744 ft | 455 kts | 220° |
| 2026-04-26 16:40 | -26.27124 | -48.56443 | 39053 ft | 454 kts | 220° |
| 2026-04-26 16:41 | -26.29776 | -48.58355 | 39377 ft | 453 kts | 220° |
| 2026-04-26 16:41 | -26.32389 | -48.60240 | 39687 ft | 452 kts | 220° |
| 2026-04-26 16:41 | -26.35030 | -48.62147 | 39875 ft | 453 kts | 220° |
| 2026-04-26 16:41 | -26.37663 | -48.64046 | 39869 ft | 448 kts | 220° |
| 2026-04-26 16:42 | -26.42861 | -48.67805 | 39870 ft | 446 kts | 220° |
| 2026-04-26 16:42 | -26.48072 | -48.71578 | 39872 ft | 445 kts | 221° |
| 2026-04-26 16:43 | -26.53229 | -48.75394 | 39871 ft | 444 kts | 221° |
| 2026-04-26 16:43 | -26.58383 | -48.79188 | 39876 ft | 444 kts | 221° |
| 2026-04-26 16:44 | -26.63537 | -48.82994 | 39886 ft | 443 kts | 221° |
| 2026-04-26 16:44 | -26.68705 | -48.86807 | 39898 ft | 450 kts | 222° |
| 2026-04-26 16:45 | -26.73984 | -48.90641 | 39900 ft | 455 kts | 222° |
| 2026-04-26 16:45 | -26.79267 | -48.94506 | 39897 ft | 454 kts | 223° |
| 2026-04-26 16:46 | -26.84564 | -48.98383 | 39900 ft | 455 kts | 222° |
| 2026-04-26 16:46 | -26.89847 | -49.02249 | 39901 ft | 453 kts | 223° |
| 2026-04-26 16:47 | -26.95127 | -49.06124 | 39901 ft | 453 kts | 223° |
| 2026-04-26 16:47 | -27.00404 | -49.09996 | 39919 ft | 453 kts | 223° |
| 2026-04-26 16:48 | -27.05667 | -49.13865 | 39920 ft | 451 kts | 223° |
| 2026-04-26 16:48 | -27.10894 | -49.17712 | 39919 ft | 452 kts | 223° |
| 2026-04-26 16:49 | -27.16164 | -49.21593 | 39930 ft | 452 kts | 223° |
| 2026-04-26 16:49 | -27.21420 | -49.25469 | 39926 ft | 451 kts | 223° |
| 2026-04-26 16:50 | -27.26682 | -49.29356 | 39935 ft | 453 kts | 223° |
| 2026-04-26 16:50 | -27.31923 | -49.33223 | 39932 ft | 447 kts | 223° |
| 2026-04-26 16:51 | -27.37150 | -49.37102 | 39950 ft | 450 kts | 223° |
| 2026-04-26 16:51 | -27.42392 | -49.40976 | 39927 ft | 451 kts | 223° |
| 2026-04-26 16:52 | -27.46751 | -49.44214 | 39936 ft | 451 kts | 223° |
| 2026-04-26 16:52 | -27.52834 | -49.48728 | 39937 ft | 451 kts | 223° |
| 2026-04-26 16:53 | -27.58073 | -49.52620 | 39933 ft | 450 kts | 223° |
| 2026-04-26 16:53 | -27.63303 | -49.56491 | 39934 ft | 449 kts | 224° |
| 2026-04-26 16:54 | -27.68518 | -49.60365 | 39939 ft | 449 kts | 224° |
| 2026-04-26 16:54 | -27.73733 | -49.64237 | 39943 ft | 448 kts | 224° |
| 2026-04-26 16:55 | -27.79014 | -49.68007 | 39932 ft | 449 kts | 223° |
| 2026-04-26 16:55 | -27.84261 | -49.71769 | 39935 ft | 449 kts | 223° |
| 2026-04-26 16:56 | -27.92178 | -49.77415 | 39939 ft | 448 kts | 223° |
| 2026-04-26 16:57 | -27.97450 | -49.81183 | 39946 ft | 448 kts | 223° |
| 2026-04-26 16:57 | -28.05378 | -49.86864 | 39945 ft | 449 kts | 223° |
| 2026-04-26 16:58 | -28.09768 | -49.90009 | 39945 ft | 448 kts | 224° |
| 2026-04-26 16:59 | -28.18555 | -49.96322 | 39937 ft | 448 kts | 224° |
| 2026-04-26 17:00 | -28.29036 | -50.03867 | 39946 ft | 447 kts | 224° |
| 2026-04-26 17:00 | -28.36896 | -50.09535 | 39944 ft | 445 kts | 224° |
| 2026-04-26 17:01 | -28.42121 | -50.13310 | 39917 ft | 444 kts | 224° |
| 2026-04-26 17:01 | -28.47346 | -50.17091 | 39933 ft | 446 kts | 224° |
| 2026-04-26 17:02 | -28.52559 | -50.20860 | 39923 ft | 442 kts | 225° |
| 2026-04-26 17:02 | -28.57732 | -50.24615 | 39917 ft | 441 kts | 225° |
| 2026-04-26 17:03 | -28.62911 | -50.28372 | 39917 ft | 440 kts | 225° |
| 2026-04-26 17:03 | -28.68072 | -50.32123 | 39917 ft | 440 kts | 225° |
| 2026-04-26 17:04 | -28.73158 | -50.35888 | 39922 ft | 432 kts | 230° |
| 2026-04-26 17:04 | -28.77967 | -50.39993 | 39912 ft | 432 kts | 229° |
| 2026-04-26 17:05 | -28.82777 | -50.44089 | 39904 ft | 432 kts | 229° |
| 2026-04-26 17:05 | -28.87576 | -50.48189 | 39906 ft | 430 kts | 229° |
| 2026-04-26 17:06 | -28.92367 | -50.52283 | 39904 ft | 430 kts | 229° |
| 2026-04-26 17:06 | -28.97147 | -50.56376 | 39909 ft | 429 kts | 229° |
| 2026-04-26 17:07 | -29.01923 | -50.60468 | 39898 ft | 429 kts | 229° |
| 2026-04-26 17:07 | -29.06700 | -50.64567 | 39910 ft | 429 kts | 229° |
| 2026-04-26 17:08 | -29.11433 | -50.68715 | 39918 ft | 422 kts | 234° |
| 2026-04-26 17:08 | -29.15328 | -50.73530 | 39905 ft | 408 kts | 242° |
| 2026-04-26 17:09 | -29.18310 | -50.77704 | 39907 ft | 408 kts | 242° |
| 2026-04-26 17:09 | -29.22461 | -50.83564 | 39909 ft | 407 kts | 242° |
| 2026-04-26 17:10 | -29.26032 | -50.88597 | 39897 ft | 404 kts | 242° |
| 2026-04-26 17:10 | -29.29594 | -50.93641 | 39887 ft | 409 kts | 242° |
| 2026-04-26 17:11 | -29.33173 | -50.98696 | 39895 ft | 407 kts | 242° |
| 2026-04-26 17:11 | -29.36729 | -51.03737 | 39899 ft | 405 kts | 242° |
| 2026-04-26 17:12 | -29.42027 | -51.11254 | 39898 ft | 402 kts | 242° |
| 2026-04-26 17:13 | -29.47312 | -51.18775 | 39916 ft | 406 kts | 242° |
| 2026-04-26 17:14 | -29.52643 | -51.26357 | 39890 ft | 406 kts | 242° |
| 2026-04-26 17:14 | -29.57955 | -51.33935 | 39891 ft | 405 kts | 242° |
| 2026-04-26 17:15 | -29.63199 | -51.41435 | 39886 ft | 402 kts | 240° |
| 2026-04-26 17:16 | -29.66102 | -51.45584 | 39891 ft | 399 kts | 240° |
| 2026-04-26 17:16 | -29.69209 | -51.50783 | 39896 ft | 391 kts | 246° |
| 2026-04-26 17:17 | -29.72538 | -51.56972 | 39885 ft | 391 kts | 246° |
| 2026-04-26 17:17 | -29.75384 | -51.62301 | 39891 ft | 390 kts | 246° |
| 2026-04-26 17:18 | -29.77771 | -51.66764 | 39892 ft | 390 kts | 246° |
| 2026-04-26 17:18 | -29.80607 | -51.72079 | 39887 ft | 390 kts | 246° |
| 2026-04-26 17:19 | -29.84835 | -51.80012 | 39886 ft | 390 kts | 247° |
| 2026-04-26 17:19 | -29.87673 | -51.85347 | 39889 ft | 389 kts | 247° |
| 2026-04-26 17:20 | -29.90041 | -51.89805 | 39884 ft | 389 kts | 247° |
| 2026-04-26 17:20 | -29.93317 | -51.95978 | 39889 ft | 388 kts | 247° |
| 2026-04-26 17:21 | -29.96132 | -52.01290 | 39888 ft | 388 kts | 247° |
| 2026-04-26 17:21 | -29.98939 | -52.06594 | 39888 ft | 387 kts | 247° |
| 2026-04-26 17:22 | -30.01742 | -52.11898 | 39888 ft | 387 kts | 247° |
| 2026-04-26 17:22 | -30.04534 | -52.17193 | 39887 ft | 386 kts | 247° |
| 2026-04-26 17:23 | -30.07321 | -52.22485 | 39888 ft | 386 kts | 247° |
| 2026-04-26 17:23 | -30.10107 | -52.27784 | 39889 ft | 385 kts | 247° |
| 2026-04-26 17:24 | -30.12873 | -52.33048 | 39882 ft | 385 kts | 248° |
| 2026-04-26 17:24 | -30.15658 | -52.38359 | 39930 ft | 391 kts | 249° |
| 2026-04-26 17:25 | -30.18471 | -52.43675 | 39887 ft | 389 kts | 246° |
| 2026-04-26 17:25 | -30.21520 | -52.48895 | 39883 ft | 391 kts | 247° |
| 2026-04-26 17:26 | -30.24559 | -52.54121 | 39890 ft | 391 kts | 247° |
| 2026-04-26 17:26 | -30.27593 | -52.59336 | 39889 ft | 390 kts | 247° |
| 2026-04-26 17:27 | -30.30618 | -52.64546 | 39888 ft | 390 kts | 247° |
| 2026-04-26 17:27 | -30.33641 | -52.69758 | 39888 ft | 390 kts | 247° |
| 2026-04-26 17:28 | -30.36659 | -52.74970 | 39887 ft | 390 kts | 247° |
| 2026-04-26 17:28 | -30.39674 | -52.80180 | 39887 ft | 389 kts | 247° |
| 2026-04-26 17:29 | -30.42174 | -52.84508 | 39892 ft | 389 kts | 247° |
| 2026-04-26 17:29 | -30.45691 | -52.90604 | 39880 ft | 388 kts | 247° |
| 2026-04-26 17:30 | -30.48672 | -52.95777 | 39882 ft | 388 kts | 247° |
| 2026-04-26 17:30 | -30.51700 | -53.00958 | 39888 ft | 391 kts | 243° |
| 2026-04-26 17:31 | -30.55477 | -53.05683 | 39891 ft | 408 kts | 234° |
| 2026-04-26 17:31 | -30.57731 | -53.07752 | 39882 ft | 419 kts | 229° |
| 2026-04-26 17:31 | -30.60241 | -53.09587 | 39885 ft | 431 kts | 223° |
| 2026-04-26 17:32 | -30.65616 | -53.12810 | 39881 ft | 435 kts | 222° |
| 2026-04-26 17:32 | -30.71005 | -53.16018 | 39866 ft | 434 kts | 222° |
| 2026-04-26 17:33 | -30.76386 | -53.19226 | 39870 ft | 434 kts | 222° |
| 2026-04-26 17:34 | -30.84416 | -53.24020 | 39871 ft | 434 kts | 222° |
| 2026-04-26 17:34 | -30.89816 | -53.27250 | 39874 ft | 433 kts | 222° |
| 2026-04-26 17:35 | -30.95155 | -53.30444 | 39877 ft | 434 kts | 222° |
| 2026-04-26 17:35 | -31.00531 | -53.33664 | 39871 ft | 434 kts | 222° |
| 2026-04-26 17:36 | -31.05905 | -53.36888 | 39871 ft | 434 kts | 222° |
| 2026-04-26 17:36 | -31.11273 | -53.40111 | 39881 ft | 434 kts | 222° |
| 2026-04-26 17:37 | -31.16642 | -53.43341 | 39871 ft | 434 kts | 222° |
| 2026-04-26 17:37 | -31.22010 | -53.46573 | 39875 ft | 434 kts | 223° |
| 2026-04-26 17:38 | -31.30069 | -53.51434 | 39855 ft | 435 kts | 223° |
| 2026-04-26 17:38 | -31.35416 | -53.54664 | 39873 ft | 435 kts | 222° |
| 2026-04-26 17:39 | -31.40796 | -53.57917 | 39869 ft | 435 kts | 223° |
| 2026-04-26 17:39 | -31.46177 | -53.61177 | 39868 ft | 436 kts | 222° |
| 2026-04-26 17:40 | -31.50659 | -53.63895 | 39860 ft | 436 kts | 222° |
| 2026-04-26 17:40 | -31.56957 | -53.67718 | 39862 ft | 436 kts | 222° |
| 2026-04-26 17:41 | -31.62337 | -53.70991 | 39870 ft | 436 kts | 222° |
| 2026-04-26 17:41 | -31.67724 | -53.74270 | 39860 ft | 436 kts | 222° |
| 2026-04-26 17:42 | -31.73118 | -53.77558 | 39854 ft | 436 kts | 222° |
| 2026-04-26 17:42 | -31.78473 | -53.80827 | 39859 ft | 437 kts | 222° |
| 2026-04-26 17:43 | -31.83868 | -53.84125 | 39853 ft | 437 kts | 222° |
| 2026-04-26 17:43 | -31.89266 | -53.87430 | 39852 ft | 437 kts | 222° |
| 2026-04-26 17:44 | -31.94671 | -53.90741 | 39847 ft | 438 kts | 222° |
| 2026-04-26 17:44 | -31.99141 | -53.94031 | 39842 ft | 425 kts | 228° |
| 2026-04-26 17:45 | -32.04048 | -53.97940 | 39846 ft | 426 kts | 228° |
| 2026-04-26 17:45 | -32.08946 | -54.01864 | 39839 ft | 426 kts | 228° |
| 2026-04-26 17:46 | -32.13825 | -54.05771 | 39839 ft | 427 kts | 228° |
| 2026-04-26 17:46 | -32.18736 | -54.09711 | 39831 ft | 427 kts | 228° |
| 2026-04-26 17:47 | -32.22847 | -54.13014 | 39838 ft | 427 kts | 228° |
| 2026-04-26 17:47 | -32.28555 | -54.17604 | 39840 ft | 427 kts | 228° |
| 2026-04-26 17:48 | -32.33467 | -54.21561 | 39836 ft | 427 kts | 227° |
| 2026-04-26 17:48 | -32.38627 | -54.25248 | 39839 ft | 434 kts | 225° |
| 2026-04-26 17:49 | -32.43814 | -54.28907 | 39827 ft | 435 kts | 224° |
| 2026-04-26 17:49 | -32.49030 | -54.32561 | 39836 ft | 435 kts | 224° |
| 2026-04-26 17:50 | -32.54241 | -54.36233 | 39834 ft | 436 kts | 224° |
| 2026-04-26 17:50 | -32.59453 | -54.39902 | 39827 ft | 436 kts | 224° |
| 2026-04-26 17:51 | -32.64630 | -54.43555 | 39825 ft | 436 kts | 224° |
| 2026-04-26 17:51 | -32.69838 | -54.47234 | 39828 ft | 436 kts | 224° |
| 2026-04-26 17:52 | -32.75050 | -54.50922 | 39824 ft | 436 kts | 224° |
| 2026-04-26 17:52 | -32.80261 | -54.54612 | 39808 ft | 436 kts | 224° |
| 2026-04-26 17:53 | -32.85467 | -54.58305 | 39819 ft | 435 kts | 224° |
| 2026-04-26 17:54 | -32.93278 | -54.63856 | 39829 ft | 436 kts | 224° |
| 2026-04-26 17:54 | -32.98453 | -54.67540 | 39823 ft | 436 kts | 224° |
| 2026-04-26 17:55 | -33.03656 | -54.71249 | 39823 ft | 436 kts | 224° |
| 2026-04-26 17:55 | -33.08848 | -54.74951 | 39506 ft | 433 kts | 224° |
| 2026-04-26 17:55 | -33.11432 | -54.76800 | 38945 ft | 434 kts | 224° |
| 2026-04-26 17:56 | -33.14025 | -54.78657 | 38251 ft | 431 kts | 224° |
| 2026-04-26 17:56 | -33.19181 | -54.82342 | 36705 ft | 429 kts | 224° |
| 2026-04-26 17:57 | -33.24344 | -54.86061 | 35533 ft | 441 kts | 224° |
| 2026-04-26 17:57 | -33.26987 | -54.87954 | 34901 ft | 444 kts | 223° |
| 2026-04-26 17:57 | -33.29637 | -54.89844 | 34257 ft | 444 kts | 223° |
| 2026-04-26 17:57 | -33.32258 | -54.91724 | 33585 ft | 443 kts | 223° |
| 2026-04-26 17:58 | -33.40166 | -54.97426 | 31491 ft | 446 kts | 223° |
| 2026-04-26 17:59 | -33.45498 | -55.01264 | 29973 ft | 449 kts | 222° |
| 2026-04-26 17:59 | -33.48170 | -55.03194 | 29165 ft | 448 kts | 222° |
| 2026-04-26 17:59 | -33.50826 | -55.05106 | 28374 ft | 443 kts | 222° |
| 2026-04-26 17:59 | -33.53455 | -55.07002 | 27619 ft | 438 kts | 222° |
| 2026-04-26 18:00 | -33.56052 | -55.08881 | 26873 ft | 433 kts | 222° |
| 2026-04-26 18:00 | -33.58616 | -55.10737 | 26149 ft | 429 kts | 222° |
| 2026-04-26 18:00 | -33.61164 | -55.12580 | 25415 ft | 425 kts | 222° |
| 2026-04-26 18:00 | -33.63681 | -55.14403 | 24714 ft | 421 kts | 222° |
| 2026-04-26 18:01 | -33.66144 | -55.16188 | 24024 ft | 417 kts | 221° |
| 2026-04-26 18:01 | -33.68617 | -55.17981 | 23323 ft | 413 kts | 221° |
| 2026-04-26 18:01 | -33.71061 | -55.19753 | 22599 ft | 407 kts | 221° |
| 2026-04-26 18:01 | -33.73465 | -55.21497 | 21930 ft | 400 kts | 221° |
| 2026-04-26 18:02 | -33.75827 | -55.23213 | 21276 ft | 393 kts | 221° |
| 2026-04-26 18:02 | -33.76613 | -55.23785 | 21062 ft | 391 kts | 221° |
| 2026-04-26 18:02 | -33.80440 | -55.26571 | 20000 ft | 382 kts | 221° |
| 2026-04-26 18:02 | -33.82699 | -55.28216 | 19379 ft | 377 kts | 221° |
| 2026-04-26 18:03 | -33.84923 | -55.29836 | 18755 ft | 372 kts | 221° |
| 2026-04-26 18:03 | -33.87123 | -55.31440 | 18146 ft | 367 kts | 221° |
| 2026-04-26 18:03 | -33.89307 | -55.33036 | 17507 ft | 367 kts | 221° |
| 2026-04-26 18:03 | -33.91494 | -55.34636 | 16911 ft | 368 kts | 221° |
| 2026-04-26 18:04 | -33.93668 | -55.36220 | 16292 ft | 363 kts | 221° |
| 2026-04-26 18:04 | -33.95811 | -55.37780 | 15729 ft | 358 kts | 221° |
| 2026-04-26 18:04 | -33.97954 | -55.39355 | 15139 ft | 363 kts | 220° |
| 2026-04-26 18:05 | -34.02230 | -55.42476 | 14145 ft | 353 kts | 220° |
| 2026-04-26 18:05 | -34.04345 | -55.44029 | 13567 ft | 359 kts | 220° |
| 2026-04-26 18:05 | -34.06488 | -55.45607 | 12955 ft | 361 kts | 220° |
| 2026-04-26 18:05 | -34.08616 | -55.47159 | 12368 ft | 353 kts | 220° |
| 2026-04-26 18:06 | -34.10692 | -55.48674 | 11799 ft | 345 kts | 220° |
| 2026-04-26 18:06 | -34.12719 | -55.50165 | 11284 ft | 338 kts | 220° |
| 2026-04-26 18:06 | -34.14687 | -55.51609 | 11065 ft | 322 kts | 221° |
| 2026-04-26 18:06 | -34.16546 | -55.52970 | 10945 ft | 304 kts | 221° |
| 2026-04-26 18:07 | -34.17725 | -55.53836 | 10865 ft | 294 kts | 222° |
| 2026-04-26 18:07 | -34.19428 | -55.55090 | 10751 ft | 279 kts | 223° |
| 2026-04-26 18:07 | -34.21042 | -55.56280 | 10640 ft | 266 kts | 223° |
| 2026-04-26 18:07 | -34.22071 | -55.57038 | 10573 ft | 258 kts | 223° |
| 2026-04-26 18:08 | -34.24551 | -55.58873 | 10370 ft | 253 kts | 224° |
| 2026-04-26 18:08 | -34.25577 | -55.59642 | 10226 ft | 259 kts | 224° |
| 2026-04-26 18:08 | -34.27113 | -55.60771 | 9972 ft | 256 kts | 223° |
| 2026-04-26 18:08 | -34.28625 | -55.61874 | 9727 ft | 252 kts | 224° |
| 2026-04-26 18:09 | -34.30113 | -55.62980 | 9473 ft | 255 kts | 224° |
| 2026-04-26 18:09 | -34.31646 | -55.64114 | 9216 ft | 253 kts | 223° |
| 2026-04-26 18:09 | -34.33109 | -55.65187 | 8976 ft | 249 kts | 223° |
| 2026-04-26 18:09 | -34.34696 | -55.66168 | 8740 ft | 269 kts | 208° |
| 2026-04-26 18:10 | -34.36533 | -55.66689 | 8489 ft | 268 kts | 205° |
| 2026-04-26 18:10 | -34.38318 | -55.67191 | 8218 ft | 260 kts | 205° |
| 2026-04-26 18:10 | -34.40069 | -55.67692 | 7978 ft | 261 kts | 205° |
| 2026-04-26 18:10 | -34.41908 | -55.68233 | 7739 ft | 280 kts | 204° |
| 2026-04-26 18:11 | -34.43809 | -55.68766 | 7470 ft | 279 kts | 203° |
| 2026-04-26 18:11 | -34.45682 | -55.69279 | 7195 ft | 271 kts | 203° |
| 2026-04-26 18:11 | -34.47492 | -55.69790 | 6930 ft | 263 kts | 204° |
| 2026-04-26 18:11 | -34.49267 | -55.70304 | 6662 ft | 261 kts | 203° |
| 2026-04-26 18:12 | -34.51019 | -55.70802 | 6414 ft | 257 kts | 203° |
| 2026-04-26 18:12 | -34.52750 | -55.71292 | 6161 ft | 256 kts | 203° |
| 2026-04-26 18:12 | -34.54486 | -55.71787 | 5895 ft | 256 kts | 203° |
| 2026-04-26 18:12 | -34.56211 | -55.72276 | 5643 ft | 251 kts | 203° |
| 2026-04-26 18:13 | -34.57906 | -55.72757 | 5401 ft | 252 kts | 203° |
| 2026-04-26 18:13 | -34.59626 | -55.73253 | 5139 ft | 252 kts | 203° |
| 2026-04-26 18:13 | -34.61308 | -55.73726 | 4894 ft | 245 kts | 203° |
| 2026-04-26 18:13 | -34.62397 | -55.74033 | 4723 ft | 240 kts | 203° |
| 2026-04-26 18:14 | -34.64510 | -55.74634 | 4553 ft | 226 kts | 204° |
| 2026-04-26 18:14 | -34.66000 | -55.75088 | 4423 ft | 212 kts | 210° |
| 2026-04-26 18:14 | -34.67187 | -55.75972 | 4330 ft | 196 kts | 230° |
| 2026-04-26 18:14 | -34.68052 | -55.77222 | 4174 ft | 189 kts | 241° |
| 2026-04-26 18:15 | -34.68857 | -55.78500 | 3974 ft | 190 kts | 240° |
| 2026-04-26 18:15 | -34.69640 | -55.79779 | 3774 ft | 187 kts | 240° |
| 2026-04-26 18:15 | -34.70402 | -55.81027 | 3590 ft | 182 kts | 241° |
| 2026-04-26 18:15 | -34.71138 | -55.82240 | 3387 ft | 174 kts | 240° |
| 2026-04-26 18:16 | -34.71845 | -55.83393 | 3213 ft | 165 kts | 240° |
| 2026-04-26 18:16 | -34.73205 | -55.85627 | 3003 ft | 165 kts | 240° |
| 2026-04-26 18:16 | -34.73884 | -55.86744 | 3003 ft | 164 kts | 240° |
| 2026-04-26 18:17 | -34.74566 | -55.87868 | 2862 ft | 165 kts | 240° |
| 2026-04-26 18:17 | -34.75229 | -55.88952 | 2637 ft | 151 kts | 240° |
| 2026-04-26 18:17 | -34.75823 | -55.89920 | 2455 ft | 136 kts | 240° |
| 2026-04-26 18:17 | -34.76374 | -55.90823 | 2274 ft | 133 kts | 240° |
| 2026-04-26 18:18 | -34.76920 | -55.91712 | 2098 ft | 129 kts | 241° |
| 2026-04-26 18:18 | -34.77469 | -55.92625 | 1921 ft | 139 kts | 242° |
| 2026-04-26 18:18 | -34.78039 | -55.93557 | 1731 ft | 134 kts | 240° |
| 2026-04-26 18:18 | -34.78602 | -55.94484 | 1541 ft | 133 kts | 240° |
| 2026-04-26 18:19 | -34.79169 | -55.95416 | 1357 ft | 137 kts | 240° |
| 2026-04-26 18:19 | -34.79743 | -55.96355 | 1172 ft | 143 kts | 241° |
| 2026-04-26 18:19 | -34.80303 | -55.97291 | 967 ft | 135 kts | 240° |
| 2026-04-26 18:19 | -34.80864 | -55.98189 | 787 ft | 136 kts | 241° |
| 2026-04-26 18:20 | -34.81407 | -55.99094 | 639 ft | 130 kts | 241° |
| 2026-04-26 18:20 | -34.81956 | -55.99986 | 479 ft | 128 kts | 243° |
| 2026-04-26 18:20 | -34.82499 | -56.00906 | 268 ft | 129 kts | 239° |
| 2026-04-26 18:20 | -34.82847 | -56.01460 | 105 ft | 117 kts | 236° |
| 2026-04-26 18:21 | -34.83298 | -56.02212 | 93 ft | 41 kts | 234° |
| 2026-04-26 18:21 | -34.83391 | -56.02360 | 92 ft | 7 kts | 227° |
| 2026-04-26 18:21 | -34.83422 | -56.02404 | 92 ft | 12 kts | 230° |
| 2026-04-26 18:21 | -34.83490 | -56.02516 | 93 ft | 21 kts | 234° |
| 2026-04-26 18:22 | -34.83583 | -56.02667 | 92 ft | 22 kts | 233° |
| 2026-04-26 18:22 | -34.83657 | -56.02786 | 92 ft | 17 kts | 233° |
| 2026-04-26 18:22 | -34.83754 | -56.02848 | 91 ft | 16 kts | 185° |
| 2026-04-26 18:22 | -34.83862 | -56.02841 | 93 ft | 15 kts | 168° |
| 2026-04-26 18:23 | -34.83961 | -56.02778 | 92 ft | 16 kts | 127° |
| 2026-04-26 18:23 | -34.83952 | -56.02650 | 92 ft | 16 kts | 77° |
| 2026-04-26 18:23 | -34.83945 | -56.02514 | 88 ft | 17 kts | 90° |
| 2026-04-26 18:23 | -34.83946 | -56.02369 | 88 ft | 18 kts | 91° |
| 2026-04-26 18:24 | -34.83894 | -56.02247 | 89 ft | 16 kts | 21° |
| 2026-04-26 18:24 | -34.83784 | -56.02220 | 92 ft | 16 kts | 27° |
| 2026-04-26 18:24 | -34.83710 | -56.02116 | 93 ft | 17 kts | 52° |
| 2026-04-26 18:24 | -34.83638 | -56.02003 | 92 ft | 16 kts | 53° |
| 2026-04-26 18:25 | -34.83635 | -56.01915 | 91 ft | 10 kts | 117° |
| 2026-04-26 18:25 | -34.83665 | -56.01880 | 93 ft | 0 kts | 141° |